Time;durP1;ratioP1;P1;durP2;ratioP2;P2;SDS_P1;SDS_P2;PMS_P1;PMS_P2;Temp;Humidity;BMP_temperature;BMP_pressure;BME280_temperature;BME280_humidity;BME280_pressure;Samples;Min_cycle;Max_cycle;Signal;HPM_P1;HPM_P2
2021/01/14 00:00:44;;;;;;;6.23;1.60;;;;;;;-0.39;76.59;99537.72;5051505;28;20037;-71
2021/01/14 00:03:11;;;;;;;6.20;1.30;;;;;;;-0.36;75.46;99538.66;5051439;28;20032;-71
2021/01/14 00:05:38;;;;;;;7.67;1.57;;;;;;;-0.40;76.68;99548.94;5051522;28;20689;-71
2021/01/14 00:08:04;;;;;;;5.30;1.83;;;;;;;-0.39;76.02;99533.44;5051016;28;20094;-71
2021/01/14 00:10:30;;;;;;;5.43;1.17;;;;;;;-0.40;76.26;99542.03;5051449;28;20037;-71
2021/01/14 00:12:55;;;;;;;7.20;2.20;;;;;;;-0.36;76.34;99548.16;5051181;28;20043;-71
2021/01/14 00:15:21;;;;;;;6.40;1.27;;;;;;;-0.35;76.29;99539.53;5051343;28;20037;-71
2021/01/14 00:17:46;;;;;;;5.00;1.47;;;;;;;-0.37;76.31;99556.78;5051199;28;20041;-71
2021/01/14 00:20:14;;;;;;;4.17;1.27;;;;;;;-0.37;75.52;99525.66;5051396;28;20033;-71
2021/01/14 00:22:40;;;;;;;4.87;1.33;;;;;;;-0.41;76.48;99529.03;5051006;28;20033;-71
2021/01/14 00:25:07;;;;;;;4.30;1.20;;;;;;;-0.36;75.23;99538.66;5051278;28;20506;-71
2021/01/14 00:27:32;;;;;;;3.07;1.13;;;;;;;-0.38;74.61;99561.09;5051195;28;20468;-70
2021/01/14 00:29:58;;;;;;;3.17;1.10;;;;;;;-0.42;75.77;99529.88;5051136;28;20077;-70
2021/01/14 00:32:23;;;;;;;5.50;1.40;;;;;;;-0.39;75.51;99535.13;5051002;28;20075;-69
2021/01/14 00:34:49;;;;;;;5.93;1.30;;;;;;;-0.42;75.68;99527.28;5050982;28;20044;-71
2021/01/14 00:39:58;;;;;;;4.27;1.10;;;;;;;-0.40;75.39;99533.38;5051059;28;20048;-72
2021/01/14 00:42:23;;;;;;;9.13;2.00;;;;;;;-0.41;74.52;99548.06;5050800;28;20041;-71
2021/01/14 00:44:49;;;;;;;4.93;1.13;;;;;;;-0.42;74.49;99551.47;5051151;28;20033;-72
2021/01/14 00:47:14;;;;;;;3.83;0.90;;;;;;;-0.42;74.60;99540.25;5051054;28;20044;-72
2021/01/14 00:49:40;;;;;;;4.97;1.00;;;;;;;-0.36;74.36;99537.81;5050926;28;20040;-72
2021/01/14 00:52:05;;;;;;;4.10;0.90;;;;;;;-0.43;75.21;99557.50;5050820;28;20043;-72
2021/01/14 00:54:30;;;;;;;4.07;1.10;;;;;;;-0.42;75.36;99554.06;5050877;28;20445;-71
2021/01/14 00:56:55;;;;;;;5.13;1.10;;;;;;;-0.41;76.14;99526.47;5050703;28;20461;-72
2021/01/14 00:59:21;;;;;;;4.33;1.13;;;;;;;-0.49;76.58;99532.34;5050912;28;20491;-72
2021/01/14 01:01:46;;;;;;;5.33;1.07;;;;;;;-0.42;76.20;99527.28;5049134;28;20036;-70
2021/01/14 01:04:12;;;;;;;2.57;1.03;;;;;;;-0.37;76.48;99536.03;5050617;28;20094;-69
2021/01/14 01:06:39;;;;;;;3.60;0.90;;;;;;;-0.47;76.60;99545.34;5050898;28;20041;-70
2021/01/14 01:09:06;;;;;;;5.57;1.30;;;;;;;-0.50;76.88;99553.03;5050666;28;20041;-69
2021/01/14 01:11:32;;;;;;;4.37;1.00;;;;;;;-0.37;75.92;99552.47;5050833;28;20447;-70
2021/01/14 01:13:58;;;;;;;3.53;0.97;;;;;;;-0.41;76.06;99560.16;5050450;28;20045;-70
2021/01/14 01:16:23;;;;;;;5.63;1.43;;;;;;;-0.42;75.92;99546.28;5050850;28;20037;-70
2021/01/14 01:18:49;;;;;;;5.70;1.20;;;;;;;-0.37;76.17;99554.19;5051477;28;20123;-70
2021/01/14 01:21:14;;;;;;;4.90;1.40;;;;;;;-0.26;75.54;99555.31;5054633;28;20041;-70
2021/01/14 01:23:40;;;;;;;4.87;1.20;;;;;;;-0.21;74.72;99538.09;5054363;28;20044;-70
2021/01/14 01:26:06;;;;;;;5.53;0.93;;;;;;;-0.23;74.99;99539.81;5054384;28;20047;-70
2021/01/14 01:28:32;;;;;;;6.80;1.17;;;;;;;-0.23;74.82;99548.47;5054382;28;20036;-70
2021/01/14 01:30:57;;;;;;;4.47;0.80;;;;;;;-0.18;74.79;99545.97;5054440;28;20064;-69
2021/01/14 01:33:26;;;;;;;4.43;1.13;;;;;;;-0.20;74.46;99545.06;5054152;28;20061;-69
2021/01/14 01:35:52;;;;;;;2.43;0.90;;;;;;;-0.16;74.99;99538.22;5054293;28;20037;-69
2021/01/14 01:38:18;;;;;;;3.07;0.90;;;;;;;-0.14;74.73;99547.78;5054055;28;20033;-69
2021/01/14 01:40:43;;;;;;;3.57;0.80;;;;;;;-0.12;75.08;99559.06;5054263;28;20032;-69
2021/01/14 01:43:09;;;;;;;5.83;0.80;;;;;;;-0.12;74.56;99542.63;5053877;28;20036;-70
2021/01/14 01:45:34;;;;;;;3.17;1.20;;;;;;;-0.12;75.01;99542.63;5054132;28;20089;-70
2021/01/14 01:48:01;;;;;;;2.97;0.80;;;;;;;-0.11;74.42;99545.22;5053933;28;20049;-69
2021/01/14 01:50:27;;;;;;;4.23;1.00;;;;;;;-0.05;74.32;99541.91;5054009;28;20036;-69
2021/01/14 01:52:54;;;;;;;3.03;0.87;;;;;;;-0.06;74.46;99555.72;5053710;28;20041;-70
2021/01/14 01:55:20;;;;;;;4.00;0.83;;;;;;;-0.07;75.02;99534.09;5053856;28;20041;-70
2021/01/14 01:57:45;;;;;;;5.13;1.13;;;;;;;-0.08;75.29;99532.34;5053916;28;20028;-70
2021/01/14 02:00:11;;;;;;;5.30;1.00;;;;;;;-0.05;75.69;99528.94;5053873;28;20055;-70
2021/01/14 02:02:36;;;;;;;11.13;2.60;;;;;;;-0.07;75.67;99523.72;5053634;28;20040;-69
2021/01/14 02:05:03;;;;;;;5.23;1.30;;;;;;;-0.04;77.00;99531.56;5053785;28;20033;-70
2021/01/14 02:07:37;;;;;;;7.03;1.20;;;;;;;-0.13;78.66;99530.47;5053610;28;20037;-69
2021/01/14 02:10:13;;;;;;;3.87;1.43;;;;;;;-0.25;79.99;99532.00;5053740;28;20037;-69
2021/01/14 02:12:54;;;;;;;6.73;1.67;;;;;;;-0.32;81.92;99542.19;5053461;28;20037;-69
2021/01/14 02:15:22;;;;;;;5.23;2.37;;;;;;;-0.40;83.40;99543.75;5053667;28;20072;-69
2021/01/14 02:17:51;;;;;;;8.83;1.87;;;;;;;-0.41;83.55;99545.47;5053388;28;20123;-69
2021/01/14 02:20:18;;;;;;;6.83;2.10;;;;;;;-0.63;85.29;99535.44;5053417;28;20097;-68
2021/01/14 02:22:45;;;;;;;5.97;1.77;;;;;;;-0.57;85.28;99553.75;5053195;28;20041;-68
2021/01/14 02:25:22;;;;;;;6.03;1.77;;;;;;;-0.61;85.44;99562.28;5053449;28;20064;-69
2021/01/14 02:27:49;;;;;;;5.47;1.80;;;;;;;-0.60;85.03;99533.81;5053316;28;20040;-69
2021/01/14 02:30:16;;;;;;;3.80;1.83;;;;;;;-0.59;84.13;99532.97;5053111;28;20048;-68
2021/01/14 02:32:44;;;;;;;4.53;1.87;;;;;;;-0.63;85.19;99545.81;5053080;28;20041;-68
2021/01/14 02:35:10;;;;;;;6.00;1.80;;;;;;;-0.51;83.32;99536.59;5053074;28;20472;-69
2021/01/14 02:37:35;;;;;;;5.30;1.83;;;;;;;-0.57;83.87;99558.94;5053087;28;20049;-69
2021/01/14 02:40:01;;;;;;;9.87;2.00;;;;;;;-0.60;84.66;99558.84;5053256;28;20037;-68
2021/01/14 02:42:26;;;;;;;6.23;1.90;;;;;;;-0.67;84.41;99547.47;5052949;28;20048;-69
2021/01/14 02:44:51;;;;;;;6.90;2.20;;;;;;;-0.71;83.66;99550.81;5053139;28;20040;-68
2021/01/14 02:47:17;;;;;;;7.27;2.37;;;;;;;-0.68;83.90;99545.72;5052913;28;20052;-68
2021/01/14 02:49:54;;;;;;;4.30;1.83;;;;;;;-0.70;83.52;99552.59;5053134;28;20029;-69
2021/01/14 02:52:22;;;;;;;3.97;1.73;;;;;;;-0.67;83.58;99561.31;5052543;28;20052;-68
2021/01/14 02:54:48;;;;;;;4.17;2.10;;;;;;;-0.71;83.81;99566.38;5052885;28;20111;-68
2021/01/14 02:57:16;;;;;;;7.27;2.40;;;;;;;-0.69;83.65;99551.75;5052629;28;20041;-68
2021/01/14 02:59:41;;;;;;;7.30;2.40;;;;;;;-0.69;83.50;99588.00;5053200;28;20116;-68
2021/01/14 03:02:06;;;;;;;5.37;2.20;;;;;;;-0.72;84.09;99567.22;5048324;28;20120;-68
2021/01/14 03:04:32;;;;;;;6.47;2.80;;;;;;;-0.70;84.50;99570.72;5052834;28;20449;-68
2021/01/14 03:06:57;;;;;;;6.60;2.70;;;;;;;-0.75;84.22;99568.03;5052667;28;20455;-69
2021/01/14 03:09:22;;;;;;;6.60;2.40;;;;;;;-0.65;83.99;99576.91;5052461;28;20033;-68
2021/01/14 03:11:48;;;;;;;6.77;2.53;;;;;;;-0.71;84.28;99554.31;5052641;28;20044;-68
2021/01/14 03:14:14;;;;;;;6.23;2.73;;;;;;;-0.66;84.57;99557.00;5052196;28;20172;-70
2021/01/14 03:16:39;;;;;;;6.93;2.87;;;;;;;-0.64;84.52;99570.00;5052397;28;20120;-70
2021/01/14 03:19:05;;;;;;;4.57;2.60;;;;;;;-0.57;83.96;99561.53;5052305;28;20479;-70
2021/01/14 03:21:30;;;;;;;6.03;2.70;;;;;;;-0.56;83.85;99579.69;5052296;28;20114;-70
2021/01/14 03:23:56;;;;;;;8.53;3.23;;;;;;;-0.54;84.32;99570.25;5052033;28;20032;-70
2021/01/14 03:26:21;;;;;;;3.90;2.10;;;;;;;-0.48;83.53;99583.31;5052193;28;20033;-68
2021/01/14 03:28:48;;;;;;;8.47;2.63;;;;;;;-0.46;83.61;99579.06;5052201;28;20044;-68
2021/01/14 03:31:14;;;;;;;3.40;1.93;;;;;;;-0.47;83.91;99581.63;5052031;28;20811;-68
2021/01/14 03:33:40;;;;;;;5.53;2.10;;;;;;;-0.41;83.86;99574.00;5051756;28;20044;-68
2021/01/14 03:36:07;;;;;;;4.43;1.63;;;;;;;-0.43;84.32;99590.34;5052028;28;20036;-68
2021/01/14 03:38:36;;;;;;;4.57;1.87;;;;;;;-0.45;83.93;99604.16;5051904;28;20029;-68
2021/01/14 03:41:13;;;;;;;8.37;2.20;;;;;;;-0.43;84.97;99593.81;5051642;28;20480;-68
2021/01/14 03:43:38;;;;;;;5.53;1.80;;;;;;;-0.42;85.47;99590.34;5051499;28;20120;-68
2021/01/14 03:46:09;;;;;;;4.03;2.57;;;;;;;-0.39;85.02;99589.56;5052083;28;20104;-68
2021/01/14 03:48:38;;;;;;;8.27;2.50;;;;;;;-0.40;85.73;99598.19;5051570;28;20029;-69
2021/01/14 03:51:04;;;;;;;6.00;2.23;;;;;;;-0.46;86.80;99615.34;5051791;28;20086;-68
2021/01/14 03:53:29;;;;;;;4.07;2.20;;;;;;;-0.40;86.43;99593.88;5051519;28;20036;-69
2021/01/14 03:55:54;;;;;;;4.83;2.43;;;;;;;-0.35;86.90;99612.13;5051496;28;20040;-69
2021/01/14 03:58:20;;;;;;;3.63;2.20;;;;;;;-0.36;86.85;99605.22;5051583;28;20036;-68
2021/01/14 04:00:45;;;;;;;5.63;2.40;;;;;;;-0.40;86.97;99630.16;5051650;28;20055;-68
2021/01/14 04:03:10;;;;;;;2.90;1.80;;;;;;;-0.34;86.74;99616.47;5051118;28;20090;-68
2021/01/14 04:05:36;;;;;;;4.57;1.70;;;;;;;-0.31;86.49;99616.56;5051463;28;20442;-68
2021/01/14 04:08:01;;;;;;;7.63;1.90;;;;;;;-0.27;86.87;99644.28;5051407;28;20048;-69
2021/01/14 04:10:26;;;;;;;2.87;1.57;;;;;;;-0.28;86.43;99645.16;5051489;28;20040;-69
2021/01/14 04:12:52;;;;;;;2.47;1.27;;;;;;;-0.20;86.36;99656.56;5051145;28;20040;-68
2021/01/14 04:15:18;;;;;;;5.37;1.90;;;;;;;-0.23;86.37;99653.91;5051294;28;20497;-68
2021/01/14 04:17:43;;;;;;;3.13;1.30;;;;;;;-0.12;86.12;99669.72;5051441;28;20043;-68
2021/01/14 04:20:09;;;;;;;3.20;1.60;;;;;;;-0.19;86.67;99692.03;5051293;28;20483;-69
2021/01/14 04:22:34;;;;;;;3.40;1.53;;;;;;;-0.12;86.36;99693.94;5051140;28;20040;-68
2021/01/14 04:25:02;;;;;;;5.17;1.60;;;;;;;-0.13;86.13;99707.75;5051297;28;20036;-68
2021/01/14 04:27:29;;;;;;;2.00;1.00;;;;;;;-0.11;85.94;99725.91;5051143;28;20033;-68
2021/01/14 04:29:54;;;;;;;1.83;1.07;;;;;;;-0.08;86.27;99734.69;5051227;28;20072;-68
2021/01/14 04:32:21;;;;;;;1.73;0.87;;;;;;;-0.03;86.23;99745.13;5050991;28;20073;-68
2021/01/14 04:34:47;;;;;;;1.87;0.80;;;;;;;-0.04;85.45;99757.22;5051170;28;20055;-68
2021/01/14 04:37:12;;;;;;;0.80;0.60;;;;;;;0.03;84.81;99754.78;5051022;28;20041;-68
2021/01/14 04:39:37;;;;;;;1.80;0.80;;;;;;;0.06;84.30;99766.13;5049267;28;20039;-68
2021/01/14 04:42:06;;;;;;;1.80;0.67;;;;;;;0.10;83.72;99786.09;5050148;28;20036;-68
2021/01/14 04:44:32;;;;;;;1.30;0.63;;;;;;;0.06;85.03;99783.41;5051007;28;20029;-67
2021/01/14 04:47:13;;;;;;;2.07;0.80;;;;;;;0.01;85.05;99792.81;5050859;28;20446;-68
2021/01/14 04:49:38;;;;;;;2.20;0.60;;;;;;;0.09;84.38;99812.91;5050936;28;20029;-68
2021/01/14 04:52:04;;;;;;;1.60;0.60;;;;;;;0.10;84.24;99806.84;5050793;28;20511;-68
2021/01/14 04:54:35;;;;;;;1.60;0.50;;;;;;;0.11;84.14;99805.16;5054456;28;20037;-68
2021/01/14 04:57:17;;;;;;;1.80;0.50;;;;;;;0.05;84.90;99812.78;5053214;28;20025;-68
2021/01/14 04:59:43;;;;;;;;;;;;;;;0.08;84.57;99831.00;5050250;28;20051;-69
2021/01/14 05:02:16;;;;;;;1.43;0.50;;;;;;;0.10;84.67;99850.09;5054666;28;19917;-68
2021/01/14 05:04:45;;;;;;;0.80;0.50;;;;;;;0.08;84.73;99841.38;5055127;28;20443;-68
2021/01/14 05:07:14;;;;;;;1.53;0.70;;;;;;;0.11;84.77;99851.88;5054761;28;20110;-68
2021/01/14 05:09:41;;;;;;;2.37;0.70;;;;;;;0.15;84.41;99869.25;5054710;28;20044;-68
2021/01/14 05:12:08;;;;;;;1.50;0.63;;;;;;;0.14;84.92;99870.09;5054570;28;20410;-68
2021/01/14 05:14:36;;;;;;;1.17;0.70;;;;;;;0.18;84.58;99885.78;5054540;28;20056;-68
2021/01/14 05:17:02;;;;;;;1.60;0.70;;;;;;;0.14;84.57;99888.25;5052074;28;20119;-68
2021/01/14 05:19:27;;;;;;;0.87;0.60;;;;;;;0.14;84.72;99901.25;5054074;28;20116;-67
2021/01/14 05:21:53;;;;;;;1.53;0.60;;;;;;;0.11;84.94;99902.03;5053735;28;20402;-67
2021/01/14 05:24:19;;;;;;;0.90;0.60;;;;;;;0.17;84.20;99906.50;5053740;28;20040;-67
2021/01/14 05:26:45;;;;;;;1.40;0.80;;;;;;;0.16;84.75;99918.59;5053563;28;20499;-67
2021/01/14 05:29:12;;;;;;;1.90;0.90;;;;;;;0.14;84.48;99929.78;5054335;28;20464;-67
2021/01/14 05:31:37;;;;;;;1.90;0.60;;;;;;;0.12;84.57;99939.22;5054327;28;20480;-68
2021/01/14 05:34:03;;;;;;;1.23;0.70;;;;;;;0.07;84.38;99938.22;5053932;28;20119;-68
2021/01/14 05:37:02;;;;;;;2.03;1.00;;;;;;;0.04;85.10;99945.94;5054317;28;20033;-68
2021/01/14 05:39:28;;;;;;;2.30;1.17;;;;;;;0.03;85.08;99967.50;5047049;28;20459;-68
2021/01/14 05:41:54;;;;;;;2.40;1.20;;;;;;;0.06;84.35;99962.44;5047267;28;20065;-68
2021/01/14 05:44:34;;;;;;;4.43;2.47;;;;;;;0.07;83.97;99967.66;5052829;28;20021;-68
2021/01/14 05:47:17;;;;;;;8.30;3.60;;;;;;;0.12;83.70;99989.41;5050785;28;20523;-68
2021/01/14 05:49:53;;;;;;;9.38;4.15;;;;;;;0.15;83.50;99989.50;5049797;28;20041;-68
2021/01/14 05:52:22;;;;;;;11.97;5.60;;;;;;;0.17;83.33;99997.34;5052679;28;20090;-68
2021/01/14 05:54:57;;;;;;;14.23;6.33;;;;;;;0.18;82.89;100004.25;5053989;28;20075;-68
2021/01/14 05:57:29;;;;;;;11.00;5.80;;;;;;;0.21;82.69;100015.63;5043551;28;20075;-68
2021/01/14 05:59:55;;;;;;;13.95;5.97;;;;;;;0.23;82.66;100020.84;5050961;28;20487;-68
2021/01/14 06:02:28;;;;;;;13.47;6.43;;;;;;;0.19;83.13;100029.41;5051916;28;20108;-68
2021/01/14 06:04:53;;;;;;;10.77;5.67;;;;;;;0.21;83.06;100027.72;5047769;28;20025;-68
2021/01/14 06:07:19;;;;;;;12.43;6.13;;;;;;;0.21;82.47;100040.72;5046072;28;20110;-68
2021/01/14 06:09:45;;;;;;;12.83;5.73;;;;;;;0.18;82.64;100036.31;5052386;28;20033;-68
2021/01/14 06:12:12;;;;;;;11.00;5.90;;;;;;;0.21;83.10;100051.09;5053444;28;20033;-68
2021/01/14 06:14:38;;;;;;;12.30;6.30;;;;;;;0.19;83.10;100061.41;5053785;28;20044;-69
2021/01/14 06:17:07;;;;;;;10.17;5.50;;;;;;;0.20;82.57;100070.06;5053488;28;20403;-68
2021/01/14 06:19:33;;;;;;;11.90;5.80;;;;;;;0.20;82.98;100064.88;5053308;28;20090;-68
2021/01/14 06:21:59;;;;;;;11.13;5.33;;;;;;;0.19;82.77;100076.97;5053449;28;20399;-69
2021/01/14 06:24:29;;;;;;;12.10;5.67;;;;;;;0.22;82.69;100084.84;5053191;28;20086;-68
2021/01/14 06:26:57;;;;;;;10.70;5.10;;;;;;;0.25;82.60;100102.22;5053509;28;20028;-68
2021/01/14 06:29:27;;;;;;;12.57;6.10;;;;;;;0.24;82.12;100110.88;5045282;28;20033;-68
2021/01/14 06:32:12;;;;;;;12.67;5.53;;;;;;;0.24;82.18;100108.25;5051884;28;20083;-68
2021/01/14 06:34:40;;;;;;;10.77;5.97;;;;;;;0.25;82.71;100120.41;5047660;28;20384;-68
2021/01/14 06:37:11;;;;;;;11.80;6.40;;;;;;;0.27;82.71;100138.63;5052413;28;20037;-68
2021/01/14 06:39:47;;;;;;;9.30;5.50;;;;;;;0.26;82.23;100136.84;5052787;28;20143;-68
2021/01/14 06:42:26;;;;;;;9.03;6.00;;;;;;;0.22;82.58;100143.66;5052326;28;20399;-68
2021/01/14 06:44:55;;;;;;;11.90;5.87;;;;;;;0.28;81.60;100156.81;5052873;28;20476;-68
2021/01/14 06:47:28;;;;;;;11.00;6.43;;;;;;;0.28;82.32;100153.34;5052567;28;20584;-69
2021/01/14 06:50:12;;;;;;;11.23;5.83;;;;;;;0.24;82.02;100154.06;5053026;28;20391;-68
2021/01/14 06:52:48;;;;;;;8.40;5.87;;;;;;;0.31;81.60;100176.78;5046726;28;20036;-68
2021/01/14 06:55:15;;;;;;;10.07;5.50;;;;;;;0.27;82.23;100182.75;5052968;28;20415;-69
2021/01/14 06:57:49;;;;;;;9.57;5.80;;;;;;;0.29;82.45;100189.75;5052683;28;20043;-68
2021/01/14 07:00:19;;;;;;;10.40;6.60;;;;;;;0.25;82.37;100187.88;5051409;28;20454;-69
2021/01/14 07:02:59;;;;;;;11.33;6.03;;;;;;;0.29;82.19;100194.94;5052529;28;20049;-68
2021/01/14 07:05:38;;;;;;;11.57;5.87;;;;;;;0.33;81.96;100198.50;5044828;28;20446;-69
2021/01/14 07:08:32;;;;;;;10.90;6.63;;;;;;;0.33;82.27;100207.16;5052442;28;20033;-68
2021/01/14 07:11:15;;;;;;;11.70;7.30;;;;;;;0.37;81.78;100208.16;5051199;28;20138;-69
2021/01/14 07:13:47;;;;;;;11.18;6.43;;;;;;;0.35;82.83;100223.66;5052139;28;20111;-68
2021/01/14 07:16:15;;;;;;;12.82;7.30;;;;;;;0.37;82.46;100229.78;5064375;28;20508;-68
2021/01/14 07:18:41;;;;;;;11.67;6.63;;;;;;;0.38;83.58;100235.84;5050081;28;20475;-68
2021/01/14 07:21:28;;;;;;;11.87;7.13;;;;;;;0.32;83.84;100235.69;5050379;28;20041;-69
2021/01/14 07:24:09;;;;;;;12.47;7.27;;;;;;;0.32;83.66;100241.75;5050018;28;20032;-69
2021/01/14 07:26:39;;;;;;;10.90;5.73;;;;;;;0.43;82.87;100255.94;5044006;28;20450;-69
2021/01/14 07:29:05;;;;;;;11.20;6.33;;;;;;;0.40;83.36;100276.59;5036161;28;20033;-70
2021/01/14 07:31:31;;;;;;;12.83;6.23;;;;;;;0.50;83.28;100276.88;5039400;28;20029;-69
2021/01/14 07:33:57;;;;;;;13.93;6.90;;;;;;;0.47;82.49;100282.84;5040455;28;20040;-68
2021/01/14 07:36:24;;;;;;;12.13;6.77;;;;;;;0.49;82.24;100282.91;5043575;28;20029;-68
2021/01/14 07:38:53;;;;;;;12.70;6.37;;;;;;;0.49;82.28;100288.97;5051316;28;20040;-68
2021/01/14 07:41:18;;;;;;;15.97;8.00;;;;;;;0.52;82.59;100298.56;5050606;28;20028;-70
2021/01/14 07:43:47;;;;;;;13.93;6.70;;;;;;;0.51;82.66;100307.22;5051044;28;20562;-70
2021/01/14 07:46:23;;;;;;;14.67;8.30;;;;;;;0.52;82.96;100306.38;5050542;28;20461;-70
2021/01/14 07:48:53;;;;;;;14.37;7.43;;;;;;;0.55;82.73;100317.75;5049786;28;20037;-70
2021/01/14 07:51:19;;;;;;;14.20;6.97;;;;;;;0.62;82.26;100324.00;5049588;28;20079;-70
2021/01/14 07:54:06;;;;;;;13.33;7.37;;;;;;;0.64;81.93;100330.13;5051274;28;20033;-70
2021/01/14 07:56:44;;;;;;;17.40;8.30;;;;;;;0.58;82.78;100329.94;5051249;28;20423;-70
2021/01/14 07:59:10;;;;;;;14.70;8.00;;;;;;;0.55;82.70;100338.53;5051514;28;20037;-71
2021/01/14 08:02:07;;;;;;;14.60;7.53;;;;;;;0.55;82.87;100348.91;5051507;28;20124;-69
2021/01/14 08:04:47;;;;;;;14.60;8.53;;;;;;;0.62;83.03;100360.34;5044795;28;20045;-70
2021/01/14 08:07:26;;;;;;;15.07;8.50;;;;;;;0.62;82.64;100357.75;5051540;28;20080;-70
2021/01/14 08:09:52;;;;;;;13.63;7.47;;;;;;;0.65;82.43;100358.75;5051272;28;20069;-69
2021/01/14 08:12:21;;;;;;;10.47;6.97;;;;;;;0.72;82.35;100375.41;5051047;28;20036;-69
2021/01/14 08:14:47;;;;;;;12.07;7.00;;;;;;;0.70;82.35;100363.19;5051372;28;20037;-68
2021/01/14 08:17:23;;;;;;;14.57;7.40;;;;;;;0.70;82.48;100376.19;5051286;28;20410;-68
2021/01/14 08:19:49;;;;;;;13.93;8.07;;;;;;;0.77;82.24;100376.41;5051312;28;20033;-68
2021/01/14 08:22:15;;;;;;;14.10;7.90;;;;;;;0.79;82.59;100389.47;5049601;28;20033;-68
2021/01/14 08:24:44;;;;;;;14.73;7.63;;;;;;;0.80;81.94;100394.69;5051165;28;20159;-67
2021/01/14 08:27:30;;;;;;;12.93;7.77;;;;;;;0.80;82.76;100402.50;5049934;28;20040;-67
2021/01/14 08:30:14;;;;;;;14.77;8.40;;;;;;;0.88;82.25;100405.31;5050885;28;20476;-68
2021/01/14 08:32:41;;;;;;;15.70;7.97;;;;;;;0.87;81.90;100414.84;5045513;28;20053;-68
2021/01/14 08:35:08;;;;;;;14.00;7.90;;;;;;;0.91;82.16;100427.94;5050482;28;20046;-67
2021/01/14 08:37:36;;;;;;;11.97;8.10;;;;;;;0.85;82.38;100442.50;5050932;28;20033;-67
2021/01/14 08:40:08;;;;;;;13.60;7.57;;;;;;;0.87;82.32;100446.03;5051378;28;20135;-68
2021/01/14 08:42:39;;;;;;;12.63;7.30;;;;;;;0.90;82.23;100457.34;5050826;28;20037;-67
2021/01/14 08:45:09;;;;;;;14.50;7.57;;;;;;;0.92;82.06;100460.88;5051057;28;20043;-67
2021/01/14 08:47:54;;;;;;;11.80;7.60;;;;;;;0.95;81.82;100453.19;5050548;28;20048;-66
2021/01/14 08:50:49;;;;;;;12.27;6.90;;;;;;;0.96;81.79;100460.13;5050993;28;20032;-67
2021/01/14 08:53:17;;;;;;;14.27;8.43;;;;;;;0.93;81.36;100475.63;5050766;28;20128;-66
2021/01/14 08:55:43;;;;;;;15.17;8.57;;;;;;;0.98;82.06;100485.34;5050701;28;20040;-68
2021/01/14 08:58:08;;;;;;;12.73;7.60;;;;;;;0.98;81.68;100495.72;5050526;28;20044;-67
2021/01/14 09:00:37;;;;;;;13.53;8.07;;;;;;;1.03;82.16;100506.28;5050637;28;20082;-67
2021/01/14 09:03:03;;;;;;;14.80;8.20;;;;;;;1.08;81.35;100507.31;5050548;28;20040;-69
2021/01/14 09:05:28;;;;;;;14.17;8.20;;;;;;;1.06;81.04;100506.38;5050822;28;20146;-69
2021/01/14 09:08:05;;;;;;;19.03;9.87;;;;;;;1.08;81.38;100517.72;5041189;28;20403;-70
2021/01/14 09:10:48;;;;;;;16.77;8.37;;;;;;;1.14;81.23;100522.22;5047368;28;20094;-69
2021/01/14 09:13:17;;;;;;;13.45;7.57;;;;;;;1.15;81.22;100534.38;5049087;28;20158;-69
2021/01/14 09:15:43;;;;;;;14.43;8.33;;;;;;;1.18;81.26;100535.38;5050688;28;20140;-69
2021/01/14 09:18:09;;;;;;;15.30;8.13;;;;;;;1.20;81.19;100543.19;5050605;28;20495;-69
2021/01/14 09:20:35;;;;;;;12.40;7.37;;;;;;;1.18;81.11;100545.78;5050561;28;20035;-69
2021/01/14 09:23:37;;;;;;;13.33;7.30;;;;;;;1.20;80.92;100548.41;5049420;28;20132;-69
2021/01/14 09:26:14;;;;;;;15.35;8.05;;;;;;;1.16;80.56;100550.03;5008787;28;20041;-68
2021/01/14 09:28:40;;;;;;;14.63;7.90;;;;;;;1.25;80.70;100565.03;5042332;28;20454;-68
2021/01/14 09:31:08;;;;;;;11.57;7.77;;;;;;;1.33;80.00;100567.88;5050524;28;20048;-67
2021/01/14 09:33:36;;;;;;;12.33;7.50;;;;;;;1.38;80.12;100579.31;5050341;28;20048;-68
2021/01/14 09:36:12;;;;;;;13.70;8.30;;;;;;;1.44;80.56;100582.09;5050536;28;20032;-67
2021/01/14 09:38:39;;;;;;;13.20;8.03;;;;;;;1.51;79.68;100581.44;5050389;28;20122;-67
2021/01/14 09:41:04;;;;;;;12.17;7.40;;;;;;;1.53;79.17;100582.38;5053080;28;20514;-67
2021/01/14 09:43:30;;;;;;;12.87;7.80;;;;;;;1.54;78.51;100589.34;5053905;28;20037;-68
2021/01/14 09:45:57;;;;;;;14.50;7.77;;;;;;;1.54;79.27;100582.41;5054423;28;20590;-68
2021/01/14 09:48:22;;;;;;;13.80;8.10;;;;;;;1.54;78.86;100589.34;5045750;28;20033;-68
2021/01/14 09:50:50;;;;;;;12.03;6.40;;;;;;;1.63;78.72;100596.56;5054076;28;20041;-67
2021/01/14 09:53:17;;;;;;;12.40;6.67;;;;;;;1.71;77.79;100615.91;5053780;28;20495;-68
2021/01/14 09:55:43;;;;;;;11.67;6.63;;;;;;;1.68;78.19;100621.91;5054293;28;20116;-68
2021/01/14 09:58:18;;;;;;;8.30;6.17;;;;;;;1.70;78.10;100615.03;5053817;28;20032;-68
2021/01/14 10:00:46;;;;;;;12.73;7.55;;;;;;;1.66;78.06;100613.16;5052667;28;20043;-68
2021/01/14 10:03:16;;;;;;;11.20;7.10;;;;;;;1.59;77.96;100621.59;5053593;28;20036;-68
2021/01/14 10:05:41;;;;;;;12.90;6.87;;;;;;;1.60;78.34;100628.59;5053827;28;20037;-68
2021/01/14 10:08:20;;;;;;;11.57;6.83;;;;;;;1.69;78.17;100641.88;5053620;28;20037;-68
2021/01/14 10:10:45;;;;;;;14.90;7.40;;;;;;;1.65;77.63;100650.44;5053568;28;20039;-68
2021/01/14 10:13:15;;;;;;;11.33;7.47;;;;;;;1.65;77.69;100645.22;5053364;28;20120;-68
2021/01/14 10:15:44;;;;;;;14.00;6.70;;;;;;;1.68;77.82;100645.31;5053525;28;20033;-68
2021/01/14 10:18:23;;;;;;;11.03;6.67;;;;;;;1.72;77.74;100644.56;5053504;28;20124;-68
2021/01/14 10:20:56;;;;;;;11.43;5.57;;;;;;;1.78;76.72;100661.19;5053533;28;20037;-68
2021/01/14 10:23:25;;;;;;;11.30;6.72;;;;;;;1.67;77.43;100659.13;5053248;28;20523;-68
2021/01/14 10:25:50;;;;;;;9.47;5.30;;;;;;;1.77;76.12;100656.84;5053410;28;20033;-68
2021/01/14 10:28:16;;;;;;;11.43;6.13;;;;;;;1.69;76.42;100667.88;5053335;28;20052;-68
2021/01/14 10:30:41;;;;;;;11.53;5.87;;;;;;;1.71;76.32;100667.94;5053427;28;20033;-68
2021/01/14 10:33:07;;;;;;;14.53;5.97;;;;;;;1.69;76.14;100675.69;5053192;28;20099;-69
2021/01/14 10:35:34;;;;;;;10.37;5.60;;;;;;;1.80;75.24;100677.75;5053151;28;20029;-68
2021/01/14 10:38:05;;;;;;;10.07;4.90;;;;;;;2.15;74.19;100681.47;5053056;28;20729;-68
2021/01/14 10:40:36;;;;;;;8.13;5.00;;;;;;;2.44;73.17;100686.63;5053285;28;20400;-68
2021/01/14 10:43:02;;;;;;;10.97;4.77;;;;;;;2.45;72.41;100684.06;5052905;28;20098;-68
2021/01/14 10:45:29;;;;;;;10.70;5.32;;;;;;;2.34;73.59;100702.00;5053118;28;20131;-68
2021/01/14 10:48:15;;;;;;;9.00;4.50;;;;;;;2.19;73.65;100699.81;5052779;28;20036;-68
2021/01/14 10:50:44;;;;;;;12.88;5.45;;;;;;;2.11;73.24;100696.09;5047324;28;20182;-68
2021/01/14 10:53:09;;;;;;;9.57;4.00;;;;;;;2.15;72.66;100708.38;5052648;28;20040;-68
2021/01/14 10:55:35;;;;;;;10.50;4.00;;;;;;;2.03;72.42;100708.00;5052723;28;20403;-68
2021/01/14 10:58:02;;;;;;;9.97;5.23;;;;;;;1.92;73.70;100704.16;5052784;28;20037;-69
2021/01/14 11:00:34;;;;;;;8.10;4.30;;;;;;;2.02;72.68;100700.13;5052679;28;20495;-69
2021/01/14 11:03:10;;;;;;;7.20;3.60;;;;;;;1.94;72.59;100706.00;5052369;28;20048;-68
2021/01/14 11:05:48;;;;;;;7.23;4.50;;;;;;;1.89;72.97;100706.69;5051624;28;20158;-69
2021/01/14 11:08:38;;;;;;;8.57;3.97;;;;;;;1.95;73.13;100709.47;5050840;28;20126;-69
2021/01/14 11:11:04;;;;;;;9.20;4.33;;;;;;;2.01;73.13;100699.25;5048201;28;20411;-68
2021/01/14 11:13:59;;;;;;;10.30;5.37;;;;;;;2.07;72.59;100704.66;5053084;28;20037;-69
2021/01/14 11:16:26;;;;;;;11.32;5.03;;;;;;;2.11;73.08;100698.69;5036671;28;20041;-67
2021/01/14 11:18:54;;;;;;;9.33;3.60;;;;;;;2.23;72.70;100702.50;5051005;28;20525;-67
2021/01/14 11:21:39;;;;;;;6.07;3.15;;;;;;;2.11;72.84;100696.09;5052353;28;20045;-67
2021/01/14 11:24:06;;;;;;;8.23;3.00;;;;;;;2.05;72.89;100703.72;5051675;28;20079;-67
2021/01/14 11:26:31;;;;;;;7.45;2.92;;;;;;;2.19;72.81;100710.22;5052125;28;20043;-68
2021/01/14 11:28:56;;;;;;;6.32;3.20;;;;;;;2.34;72.31;100709.81;5051309;28;20124;-67
2021/01/14 11:31:24;;;;;;;10.15;3.78;;;;;;;2.35;71.93;100705.47;5052144;28;20064;-68
2021/01/14 11:33:49;;;;;;;7.35;3.22;;;;;;;2.42;72.22;100710.91;5051792;28;20514;-67
2021/01/14 11:36:18;;;;;;;8.23;3.42;;;;;;;2.48;71.07;100709.34;5051919;28;20080;-67
2021/01/14 11:38:43;;;;;;;10.65;4.40;;;;;;;2.50;71.85;100711.16;5051855;28;20494;-68
2021/01/14 11:41:09;;;;;;;11.85;5.10;;;;;;;2.51;71.67;100709.41;5051924;28;20036;-67
2021/01/14 11:43:35;;;;;;;9.98;4.18;;;;;;;2.58;71.74;100704.44;5051665;28;20071;-67